createdAt,value
2023-05-21T00:02:17.349Z,17.90
2023-05-21T00:04:44.888Z,17.83
2023-05-21T00:07:12.660Z,18.70
2023-05-21T00:09:39.116Z,17.23
2023-05-21T00:12:06.601Z,19.13
2023-05-21T00:14:33.170Z,17.95
2023-05-21T00:16:59.617Z,19.73
2023-05-21T00:19:27.139Z,19.08
2023-05-21T00:21:54.774Z,19.00
2023-05-21T00:24:21.316Z,18.63
2023-05-21T00:26:47.803Z,19.77
2023-05-21T00:29:14.416Z,19.92
2023-05-21T00:31:41.014Z,20.23
2023-05-21T00:34:07.566Z,20.05
2023-05-21T00:36:34.785Z,19.42
2023-05-21T00:39:02.373Z,19.65
2023-05-21T00:41:30.161Z,21.02
2023-05-21T00:43:57.225Z,20.55
2023-05-21T00:46:24.024Z,20.92
2023-05-21T00:48:51.164Z,19.45
2023-05-21T00:51:18.703Z,20.30
2023-05-21T00:53:46.620Z,19.83
2023-05-21T00:56:13.692Z,21.25
2023-05-21T00:58:40.984Z,19.58
2023-05-21T01:01:13.849Z,20.92
2023-05-21T01:03:41.011Z,19.63
2023-05-21T01:06:09.704Z,19.73
2023-05-21T01:08:40.684Z,21.88
2023-05-21T01:13:38.595Z,22.92
2023-05-21T01:16:08.995Z,22.08
2023-05-21T01:18:37.786Z,20.70
2023-05-21T01:21:05.407Z,21.70
2023-05-21T01:23:32.060Z,21.77
2023-05-21T01:25:58.542Z,21.65
2023-05-21T01:28:25.066Z,22.83
2023-05-21T01:30:51.904Z,21.95
2023-05-21T01:33:26.034Z,21.42
2023-05-21T01:36:09.384Z,21.63
2023-05-21T01:38:42.700Z,22.10
2023-05-21T01:41:14.117Z,20.48
2023-05-21T01:43:43.994Z,20.60
2023-05-21T01:46:16.946Z,23.17
2023-05-21T01:48:44.505Z,20.92
2023-05-21T01:51:11.875Z,23.55
2023-05-21T01:57:59.061Z,21.10
2023-05-21T02:00:29.349Z,20.80
2023-05-21T02:02:55.920Z,20.75
2023-05-21T02:05:22.464Z,21.98
2023-05-21T02:07:51.959Z,20.90
2023-05-21T02:10:19.140Z,21.67
2023-05-21T02:12:46.008Z,22.23
2023-05-21T02:15:14.252Z,21.85
2023-05-21T02:17:42.516Z,22.25
2023-05-21T02:20:11.930Z,21.90
2023-05-21T02:22:39.866Z,22.98
2023-05-21T02:25:07.932Z,22.27
2023-05-21T02:27:36.729Z,22.77
2023-05-21T02:30:05.984Z,22.63
2023-05-21T02:32:32.767Z,22.90
2023-05-21T02:34:59.569Z,21.42
2023-05-21T02:37:29.871Z,21.13
2023-05-21T02:39:56.723Z,20.35
2023-05-21T02:42:23.825Z,19.67
2023-05-21T02:44:51.331Z,22.17
2023-05-21T02:47:19.710Z,24.83
2023-05-21T02:49:46.921Z,23.00
2023-05-21T02:52:13.696Z,23.33
2023-05-21T02:54:40.166Z,21.73
2023-05-21T02:57:06.676Z,24.20
2023-05-21T02:59:33.183Z,24.83
2023-05-21T03:02:00.427Z,24.17
2023-05-21T03:04:28.375Z,25.17
2023-05-21T03:06:56.513Z,25.45
2023-05-21T03:09:23.017Z,26.67
2023-05-21T03:11:50.349Z,27.70
2023-05-21T03:14:16.850Z,27.63
2023-05-21T03:16:43.833Z,28.02
2023-05-21T03:19:11.508Z,28.80
2023-05-21T03:21:38.268Z,27.25
2023-05-21T03:24:06.864Z,26.63
2023-05-21T03:26:33.706Z,28.35
2023-05-21T03:29:00.286Z,29.20
2023-05-21T03:31:27.754Z,29.38
2023-05-21T03:34:08.577Z,28.73
2023-05-21T03:36:35.099Z,29.20
2023-05-21T03:39:03.567Z,28.67
2023-05-21T03:41:32.887Z,30.10
2023-05-21T03:44:06.302Z,29.98
2023-05-21T03:46:45.628Z,29.20
2023-05-21T03:49:20.518Z,30.48
2023-05-21T03:51:49.516Z,30.85
2023-05-21T03:54:17.728Z,31.25
2023-05-21T03:56:44.611Z,31.30
2023-05-21T03:59:11.461Z,30.90
2023-05-21T04:01:39.055Z,30.00
2023-05-21T04:04:07.945Z,31.05
2023-05-21T04:06:34.481Z,30.52
2023-05-21T04:09:01.178Z,30.35
2023-05-21T04:11:27.700Z,30.00
2023-05-21T04:13:54.150Z,32.05
2023-05-21T04:16:20.641Z,30.85
2023-05-21T04:18:47.360Z,30.00
2023-05-21T04:21:15.423Z,32.13
2023-05-21T04:23:41.874Z,31.63
2023-05-21T04:26:17.850Z,32.63
2023-05-21T04:28:45.977Z,30.98
2023-05-21T04:31:14.229Z,30.70
2023-05-21T04:33:42.189Z,30.70
2023-05-21T04:36:11.674Z,31.10
2023-05-21T04:38:39.816Z,30.50
2023-05-21T04:41:06.915Z,30.58
2023-05-21T04:43:33.456Z,29.38
2023-05-21T04:46:00.008Z,29.70
2023-05-21T04:48:29.426Z,30.25
2023-05-21T04:50:56.756Z,29.20
2023-05-21T04:53:25.864Z,28.95
2023-05-21T04:55:52.439Z,29.02
2023-05-21T04:58:19.517Z,29.63
2023-05-21T05:00:46.936Z,30.05
2023-05-21T05:03:13.885Z,27.25
2023-05-21T05:05:40.805Z,30.00
2023-05-21T05:08:07.678Z,27.17
2023-05-21T05:10:34.162Z,28.13
2023-05-21T05:13:00.766Z,27.25
2023-05-21T05:15:28.871Z,28.70
2023-05-21T05:17:56.621Z,28.58
2023-05-21T05:20:23.160Z,26.92
2023-05-21T05:22:50.469Z,28.30
2023-05-21T05:25:17.260Z,27.67
2023-05-21T05:27:44.766Z,26.88
2023-05-21T05:30:11.693Z,25.95
2023-05-21T05:32:38.340Z,26.48
2023-05-21T05:35:05.533Z,27.73
2023-05-21T05:37:32.780Z,27.88
2023-05-21T05:39:59.348Z,25.60
2023-05-21T05:42:27.050Z,28.73
2023-05-21T05:44:53.780Z,26.85
2023-05-21T05:47:21.757Z,27.88
2023-05-21T05:49:48.688Z,26.05
2023-05-21T05:52:15.302Z,27.13
2023-05-21T05:54:41.746Z,26.42
2023-05-21T05:57:08.842Z,25.73
2023-05-21T05:59:35.972Z,25.25
2023-05-21T06:02:03.012Z,27.50
2023-05-21T06:04:30.002Z,25.92
2023-05-21T06:07:00.525Z,26.98
2023-05-21T06:09:27.015Z,26.05
2023-05-21T06:11:53.479Z,26.58
2023-05-21T06:14:19.956Z,27.58
2023-05-21T06:16:46.481Z,25.75
2023-05-21T06:19:13.010Z,25.55
2023-05-21T06:21:39.532Z,26.27
2023-05-21T06:24:07.154Z,25.38
2023-05-21T06:26:33.777Z,25.90
2023-05-21T06:29:01.263Z,25.73
2023-05-21T06:31:28.691Z,26.48
2023-05-21T06:33:55.346Z,26.40
2023-05-21T06:36:22.071Z,25.45
2023-05-21T06:38:48.931Z,25.10
2023-05-21T06:41:15.453Z,24.88
2023-05-21T06:43:48.875Z,24.58
2023-05-21T06:46:38.510Z,24.77
2023-05-21T06:49:07.935Z,24.73
2023-05-21T06:51:34.749Z,24.42
2023-05-21T06:54:02.473Z,22.77
2023-05-21T06:56:29.042Z,23.38
2023-05-21T06:58:55.577Z,22.52
2023-05-21T07:01:23.447Z,21.67
2023-05-21T07:03:50.008Z,21.60
2023-05-21T07:06:16.894Z,21.35
2023-05-21T07:08:43.497Z,21.40
2023-05-21T07:11:10.122Z,20.33
2023-05-21T07:13:37.169Z,22.13
2023-05-21T07:16:03.792Z,20.60
2023-05-21T07:18:31.234Z,20.65
2023-05-21T07:20:57.804Z,19.65
2023-05-21T07:23:25.036Z,18.90
2023-05-21T07:25:51.592Z,20.52
2023-05-21T07:28:18.994Z,19.05
2023-05-21T07:30:45.491Z,18.02
2023-05-21T07:33:16.341Z,18.70
2023-05-21T07:35:43.959Z,18.55
2023-05-21T07:38:10.482Z,18.52
2023-05-21T07:40:37.181Z,18.23
2023-05-21T07:43:04.186Z,18.67
2023-05-21T07:45:32.068Z,17.17
2023-05-21T07:47:58.828Z,18.58
2023-05-21T07:50:26.434Z,16.67
2023-05-21T07:52:52.952Z,18.08
2023-05-21T07:55:20.202Z,16.80
2023-05-21T07:57:47.097Z,16.92
2023-05-21T08:00:16.194Z,15.60
2023-05-21T08:02:47.276Z,16.23
2023-05-21T08:05:16.367Z,16.17
2023-05-21T08:07:43.726Z,14.98
2023-05-21T08:10:10.481Z,16.02
2023-05-21T08:12:37.134Z,15.32
2023-05-21T08:15:05.075Z,16.77
2023-05-21T08:17:33.686Z,16.58
2023-05-21T08:20:00.480Z,15.43
2023-05-21T08:22:27.434Z,15.60
2023-05-21T08:24:54.499Z,14.35
2023-05-21T08:27:21.310Z,14.95
2023-05-21T08:29:48.050Z,14.00
2023-05-21T08:32:15.271Z,14.13
2023-05-21T08:34:42.200Z,14.85
2023-05-21T08:37:36.749Z,15.48
2023-05-21T08:40:12.638Z,15.52
2023-05-21T08:42:49.304Z,14.93
2023-05-21T08:45:26.681Z,14.93
2023-05-21T08:47:58.460Z,13.85
2023-05-21T08:50:28.288Z,14.15
2023-05-21T08:52:58.970Z,13.13
2023-05-21T08:55:26.804Z,14.38
2023-05-21T08:57:54.763Z,13.32
2023-05-21T09:00:22.843Z,13.48
2023-05-21T09:02:51.146Z,13.00
2023-05-21T09:05:19.161Z,13.10
2023-05-21T09:07:55.083Z,13.25
2023-05-21T09:11:01.359Z,12.52
2023-05-21T09:13:33.367Z,13.15
2023-05-21T09:16:04.173Z,12.80
2023-05-21T09:18:30.849Z,12.93
2023-05-21T09:21:27.376Z,13.07
2023-05-21T09:23:59.390Z,12.77
2023-05-21T09:26:26.655Z,13.40
2023-05-21T09:28:57.989Z,12.75
2023-05-21T09:31:25.930Z,12.88
2023-05-21T09:33:53.220Z,11.65
2023-05-21T09:36:21.869Z,11.30
2023-05-21T09:38:50.147Z,11.88
2023-05-21T09:41:21.244Z,12.98
2023-05-21T09:43:48.807Z,11.98
2023-05-21T09:46:16.032Z,10.55
2023-05-21T09:48:43.540Z,11.45
2023-05-21T09:51:16.526Z,10.73
2023-05-21T09:53:50.277Z,10.45
2023-05-21T09:56:18.952Z,11.43
2023-05-21T09:58:46.198Z,10.55
2023-05-21T10:01:13.418Z,10.88
2023-05-21T10:03:43.170Z,10.57
2023-05-21T10:06:11.600Z,10.13
2023-05-21T10:08:44.512Z,10.63
2023-05-21T10:11:11.901Z,9.88
2023-05-21T10:13:44.702Z,9.68
2023-05-21T10:16:11.384Z,9.52
2023-05-21T10:18:39.002Z,8.65
2023-05-21T10:21:07.192Z,9.57
2023-05-21T10:23:36.242Z,9.60
2023-05-21T10:26:04.085Z,9.27
2023-05-21T10:28:31.613Z,9.05
2023-05-21T10:30:58.712Z,8.65
2023-05-21T10:33:26.750Z,8.45
2023-05-21T10:35:54.416Z,7.72
2023-05-21T10:38:21.166Z,7.60
2023-05-21T10:40:49.011Z,7.28
2023-05-21T10:43:38.828Z,7.38
2023-05-21T10:46:19.562Z,7.17
2023-05-21T10:49:07.986Z,7.50
2023-05-21T10:52:07.234Z,7.03
2023-05-21T10:54:54.802Z,7.45
2023-05-21T10:57:39.930Z,6.63
2023-05-21T11:00:09.502Z,6.18
2023-05-21T11:02:36.833Z,6.28
2023-05-21T11:05:04.494Z,6.80
2023-05-21T11:08:01.486Z,5.95
2023-05-21T11:10:40.508Z,6.03
2023-05-21T11:13:16.976Z,6.15
2023-05-21T11:15:58.469Z,6.85
2023-05-21T11:18:30.899Z,6.70
2023-05-21T11:21:04.730Z,6.22
2023-05-21T11:23:53.571Z,5.85
2023-05-21T11:26:22.494Z,6.03
2023-05-21T11:29:03.987Z,6.43
2023-05-21T11:31:38.588Z,6.00
2023-05-21T11:34:11.678Z,6.25
2023-05-21T11:36:39.497Z,7.05
2023-05-21T11:39:15.297Z,6.50
2023-05-21T11:41:58.326Z,6.80
2023-05-21T11:44:47.518Z,5.95
2023-05-21T11:47:19.099Z,7.10
2023-05-21T11:49:46.576Z,6.82
2023-05-21T11:52:14.077Z,7.13
2023-05-21T11:54:46.102Z,6.75
2023-05-21T11:57:17.398Z,6.50
2023-05-21T11:59:44.449Z,6.78
2023-05-21T12:02:17.875Z,6.53
2023-05-21T12:04:46.494Z,6.90
2023-05-21T12:07:15.041Z,6.85
2023-05-21T12:09:46.783Z,6.90
2023-05-21T12:12:16.455Z,6.45
2023-05-21T12:14:48.012Z,6.90
2023-05-21T12:17:25.240Z,6.28
2023-05-21T12:19:55.043Z,6.70
2023-05-21T12:22:23.470Z,6.77
2023-05-21T12:24:50.373Z,6.38
2023-05-21T12:27:18.183Z,6.30
2023-05-21T12:29:46.428Z,6.60
2023-05-21T12:32:14.669Z,6.55
2023-05-21T12:34:46.569Z,6.82
2023-05-21T12:37:15.995Z,6.65
2023-05-21T12:39:46.757Z,6.75
2023-05-21T12:42:13.933Z,6.00
2023-05-21T12:44:47.534Z,6.43
2023-05-21T12:47:14.420Z,6.50
2023-05-21T12:49:46.398Z,6.35
2023-05-21T12:52:13.429Z,7.00
2023-05-21T12:54:41.886Z,6.55
2023-05-21T12:57:14.167Z,7.28
2023-05-21T12:59:57.508Z,7.15
2023-05-21T13:02:27.736Z,6.78
2023-05-21T13:04:58.977Z,7.80
2023-05-21T13:07:26.839Z,7.13
2023-05-21T13:09:54.335Z,6.65
2023-05-21T13:12:22.337Z,7.00
2023-05-21T13:14:52.897Z,6.93
2023-05-21T13:17:20.053Z,6.65
2023-05-21T13:20:12.256Z,6.40
2023-05-21T13:22:42.642Z,7.05
2023-05-21T13:25:11.152Z,6.40
2023-05-21T13:27:39.612Z,7.28
2023-05-21T13:30:07.476Z,6.70
2023-05-21T13:32:34.350Z,6.43
2023-05-21T13:35:00.909Z,6.50
2023-05-21T13:37:27.877Z,7.07
2023-05-21T13:39:54.364Z,6.90
2023-05-21T13:42:21.246Z,6.38
2023-05-21T13:44:48.004Z,6.65
2023-05-21T13:47:14.589Z,6.85
2023-05-21T13:49:41.133Z,8.00
2023-05-21T13:52:08.669Z,6.65
2023-05-21T13:54:36.099Z,6.53
2023-05-21T13:57:03.358Z,6.55
2023-05-21T13:59:31.933Z,6.50
2023-05-21T14:01:59.857Z,6.55
2023-05-21T14:04:26.384Z,6.93
2023-05-21T14:06:53.087Z,6.55
2023-05-21T14:09:19.534Z,6.43
2023-05-21T14:11:46.352Z,6.65
2023-05-21T14:14:18.689Z,6.43
2023-05-21T14:16:48.867Z,7.15
2023-05-21T14:19:15.986Z,6.30
2023-05-21T14:21:43.111Z,5.78
2023-05-21T14:24:09.699Z,7.30
2023-05-21T14:26:39.963Z,6.60
2023-05-21T14:29:06.571Z,7.15
2023-05-21T14:31:33.047Z,15.40
2023-05-21T14:33:59.542Z,7.15
2023-05-21T14:36:25.992Z,6.10
2023-05-21T14:38:52.457Z,6.22
2023-05-21T14:41:18.909Z,6.70
2023-05-21T14:43:45.424Z,7.88
2023-05-21T14:46:12.013Z,6.65
2023-05-21T14:48:38.527Z,7.80
2023-05-21T14:51:05.031Z,7.78
2023-05-21T14:53:32.265Z,7.18
2023-05-21T14:55:58.845Z,6.57
2023-05-21T14:58:25.337Z,7.38
2023-05-21T15:00:51.819Z,7.25
2023-05-21T15:03:18.303Z,6.63
2023-05-21T15:05:44.792Z,7.32
2023-05-21T15:08:11.281Z,6.68
2023-05-21T15:10:37.843Z,7.22
2023-05-21T15:13:04.328Z,6.40
2023-05-21T15:15:30.774Z,6.97
2023-05-21T15:17:57.989Z,6.75
2023-05-21T15:20:24.689Z,7.28
2023-05-21T15:22:53.492Z,6.35
2023-05-21T15:25:23.509Z,6.80
2023-05-21T15:27:50.586Z,6.13
2023-05-21T15:30:17.362Z,6.80
2023-05-21T15:32:43.884Z,6.30
2023-05-21T15:35:10.492Z,7.40
2023-05-21T15:37:37.138Z,6.53
2023-05-21T15:40:04.116Z,6.35
2023-05-21T15:42:31.811Z,6.25
2023-05-21T15:44:58.607Z,6.05
2023-05-21T15:47:25.117Z,6.60
2023-05-21T15:49:51.747Z,8.32
2023-05-21T15:52:19.798Z,6.82
2023-05-21T15:54:46.940Z,6.63
2023-05-21T15:57:13.405Z,6.00
2023-05-21T15:59:39.932Z,6.07
2023-05-21T16:02:06.375Z,5.95
2023-05-21T16:04:33.850Z,5.93
2023-05-21T16:07:00.517Z,5.80
2023-05-21T16:09:27.020Z,5.47
2023-05-21T16:11:53.480Z,6.22
2023-05-21T16:14:19.941Z,5.40
2023-05-21T16:16:46.485Z,6.38
2023-05-21T16:19:13.099Z,5.28
2023-05-21T16:21:39.600Z,5.50
2023-05-21T16:24:06.583Z,5.47
2023-05-21T16:26:33.034Z,5.80
2023-05-21T16:28:59.948Z,5.82
2023-05-21T16:31:26.482Z,5.88
2023-05-21T16:33:53.009Z,5.07
2023-05-21T16:36:19.500Z,4.80
2023-05-21T16:38:45.989Z,6.03
2023-05-21T16:41:12.617Z,6.10
2023-05-21T16:43:39.130Z,5.10
2023-05-21T16:46:05.944Z,5.88
2023-05-21T16:48:32.779Z,5.18
2023-05-21T16:50:59.686Z,5.53
2023-05-21T16:53:26.804Z,5.10
2023-05-21T16:55:53.294Z,5.60
2023-05-21T16:58:19.815Z,5.40
2023-05-21T17:00:46.459Z,5.72
2023-05-21T17:03:13.049Z,5.82
2023-05-21T17:05:39.629Z,5.30
2023-05-21T17:08:06.099Z,5.00
2023-05-21T17:10:32.994Z,5.40
2023-05-21T17:13:01.866Z,4.40
2023-05-21T17:15:33.270Z,4.95
2023-05-21T17:17:59.801Z,4.53
2023-05-21T17:20:26.460Z,5.13
2023-05-21T17:22:52.963Z,5.72
2023-05-21T17:25:19.574Z,5.63
2023-05-21T17:27:46.138Z,5.05
2023-05-21T17:30:12.938Z,5.15
2023-05-21T17:32:39.431Z,5.95
2023-05-21T17:35:06.453Z,5.78
2023-05-21T17:37:34.016Z,4.93
2023-05-21T17:40:00.523Z,4.85
2023-05-21T17:42:27.020Z,4.88
2023-05-21T17:44:54.272Z,5.10
2023-05-21T17:47:20.768Z,5.10
2023-05-21T17:49:47.263Z,5.75
2023-05-21T17:52:13.780Z,5.10
2023-05-21T17:54:40.345Z,4.88
2023-05-21T17:57:06.799Z,4.75
2023-05-21T17:59:33.274Z,6.10
2023-05-21T18:02:01.521Z,5.00
2023-05-21T18:04:28.151Z,5.70
2023-05-21T18:06:54.662Z,5.85
2023-05-21T18:09:21.134Z,4.82
2023-05-21T18:11:47.593Z,4.93
2023-05-21T18:14:14.178Z,5.22
2023-05-21T18:16:40.942Z,5.35
2023-05-21T18:19:07.588Z,6.00
2023-05-21T18:21:35.169Z,5.05
2023-05-21T18:24:02.916Z,5.20
2023-05-21T18:26:30.274Z,5.00
2023-05-21T18:28:57.922Z,5.55
2023-05-21T18:31:24.783Z,4.82
2023-05-21T18:33:52.043Z,5.78
2023-05-21T18:36:18.678Z,5.18
2023-05-21T18:38:45.299Z,5.35
2023-05-21T18:41:11.809Z,4.95
2023-05-21T18:43:38.298Z,5.00
2023-05-21T18:46:04.759Z,5.18
2023-05-21T18:48:31.209Z,4.68
2023-05-21T18:50:57.782Z,5.00
2023-05-21T18:53:24.328Z,5.10
2023-05-21T18:55:50.787Z,5.25
2023-05-21T18:58:17.282Z,5.05
2023-05-21T19:00:43.751Z,5.13
2023-05-21T19:03:11.123Z,5.43
2023-05-21T19:05:37.745Z,5.32
2023-05-21T19:08:04.562Z,4.93
2023-05-21T19:10:31.024Z,5.18
2023-05-21T19:12:57.500Z,5.07
2023-05-21T19:15:24.001Z,4.95
2023-05-21T19:17:50.584Z,4.90
2023-05-21T19:20:24.320Z,5.13
2023-05-21T19:22:51.198Z,5.15
2023-05-21T19:25:17.693Z,5.10
2023-05-21T19:27:44.522Z,4.70
2023-05-21T19:30:11.297Z,5.32
2023-05-21T19:32:37.763Z,4.82
2023-05-21T19:35:05.566Z,5.35
2023-05-21T19:37:32.012Z,5.50
2023-05-21T19:39:58.490Z,4.88
2023-05-21T19:42:24.970Z,5.30
2023-05-21T19:44:51.440Z,5.18
2023-05-21T19:47:17.901Z,4.68
2023-05-21T19:49:44.475Z,5.25
2023-05-21T19:52:12.056Z,5.40
2023-05-21T19:54:38.628Z,5.00
2023-05-21T19:57:05.823Z,5.32
2023-05-21T19:59:32.359Z,5.30
2023-05-21T20:01:58.856Z,4.68
2023-05-21T20:04:25.501Z,4.82
2023-05-21T20:06:52.074Z,5.30
2023-05-21T20:09:18.595Z,5.53
2023-05-21T20:11:45.144Z,5.03
2023-05-21T20:14:11.651Z,4.60
2023-05-21T20:16:38.211Z,4.97
2023-05-21T20:19:05.667Z,4.93
2023-05-21T20:21:32.175Z,4.53
2023-05-21T20:23:58.714Z,4.95
2023-05-21T20:26:26.152Z,4.50
2023-05-21T20:28:52.651Z,4.47
2023-05-21T20:31:19.410Z,5.07
2023-05-21T20:33:46.342Z,4.90
2023-05-21T20:36:15.113Z,5.13
2023-05-21T20:38:42.050Z,5.07
2023-05-21T20:41:08.688Z,4.20
2023-05-21T20:43:37.224Z,4.47
2023-05-21T20:46:05.691Z,4.43
2023-05-21T20:48:32.249Z,4.50
2023-05-21T20:50:59.833Z,5.43
2023-05-21T20:53:26.742Z,4.38
2023-05-21T20:55:54.745Z,4.53
2023-05-21T20:58:23.857Z,4.80
2023-05-21T21:00:50.464Z,4.35
2023-05-21T21:03:18.176Z,4.90
2023-05-21T21:05:44.843Z,5.22
2023-05-21T21:08:12.234Z,4.65
2023-05-21T21:10:41.310Z,5.43
2023-05-21T21:13:08.276Z,4.75
2023-05-21T21:15:35.390Z,4.60
2023-05-21T21:18:01.952Z,5.15
2023-05-21T21:20:28.458Z,4.47
2023-05-21T21:22:54.958Z,4.80
2023-05-21T21:25:21.547Z,5.07
2023-05-21T21:27:47.997Z,4.80
2023-05-21T21:30:14.532Z,4.57
2023-05-21T21:32:41.222Z,5.07
2023-05-21T21:35:08.049Z,5.07
2023-05-21T21:37:34.607Z,4.43
2023-05-21T21:40:01.052Z,4.90
2023-05-21T21:42:27.546Z,4.93
2023-05-21T21:44:54.006Z,5.03
2023-05-21T21:47:20.465Z,4.90
2023-05-21T21:49:48.031Z,4.13
2023-05-21T21:52:14.702Z,4.53
2023-05-21T21:54:41.241Z,5.30
2023-05-21T21:57:07.696Z,4.93
2023-05-21T21:59:34.386Z,5.22
2023-05-21T22:02:01.060Z,5.35
2023-05-21T22:04:27.545Z,5.07
2023-05-21T22:06:54.052Z,4.88
2023-05-21T22:09:22.504Z,4.82
2023-05-21T22:11:49.165Z,4.22
2023-05-21T22:14:15.898Z,5.10
2023-05-21T22:16:43.265Z,4.93
2023-05-21T22:19:10.177Z,4.75
2023-05-21T22:21:36.821Z,4.88
2023-05-21T22:24:04.020Z,4.75
2023-05-21T22:26:30.537Z,4.60
2023-05-21T22:28:59.059Z,5.15
2023-05-21T22:31:26.729Z,4.70
2023-05-21T22:33:53.287Z,5.13
2023-05-21T22:36:19.740Z,4.90
2023-05-21T22:38:46.255Z,5.53
2023-05-21T22:41:12.721Z,4.15
2023-05-21T22:43:39.262Z,5.32
2023-05-21T22:46:05.824Z,5.30
2023-05-21T22:48:34.323Z,4.93
2023-05-21T22:51:01.831Z,4.57
2023-05-21T22:53:28.426Z,4.85
2023-05-21T22:55:54.897Z,5.10
2023-05-21T22:58:21.381Z,4.65
2023-05-21T23:00:48.094Z,4.80
2023-05-21T23:03:14.773Z,4.97
2023-05-21T23:05:41.371Z,5.28
2023-05-21T23:08:07.875Z,4.95
2023-05-21T23:10:35.399Z,5.60
2023-05-21T23:13:02.085Z,4.68
2023-05-21T23:15:29.527Z,4.88
2023-05-21T23:17:56.758Z,4.68
2023-05-21T23:20:24.532Z,5.13
2023-05-21T23:22:51.032Z,5.00
2023-05-21T23:25:17.818Z,4.53
2023-05-21T23:27:44.368Z,4.75
2023-05-21T23:30:11.954Z,5.07
2023-05-21T23:32:38.686Z,5.00
2023-05-21T23:35:05.648Z,5.07
2023-05-21T23:37:32.117Z,5.30
2023-05-21T23:39:58.583Z,4.80
2023-05-21T23:42:25.065Z,4.50
2023-05-21T23:44:51.527Z,4.65
2023-05-21T23:47:18.076Z,4.20
2023-05-21T23:49:44.619Z,4.68
2023-05-21T23:52:13.052Z,5.00
2023-05-21T23:54:39.545Z,5.20
2023-05-21T23:57:06.315Z,4.38
2023-05-21T23:59:32.833Z,4.85
